createdAt,value
2022-08-03T00:02:19.751Z,101047.66
2022-08-03T00:04:47.926Z,101040.81
2022-08-03T00:07:16.007Z,101035.78
2022-08-03T00:09:44.014Z,101047.47
2022-08-03T00:12:12.066Z,101039.50
2022-08-03T00:14:40.114Z,101037.34
2022-08-03T00:17:09.133Z,101042.16
2022-08-03T00:19:36.895Z,101047.59
2022-08-03T00:22:04.845Z,101044.16
2022-08-03T00:24:32.907Z,101036.78
2022-08-03T00:27:00.516Z,101046.31
2022-08-03T00:29:28.303Z,101044.28
2022-08-03T00:32:00.224Z,101047.19
2022-08-03T00:34:35.256Z,101046.34
2022-08-03T00:37:16.525Z,101042.78
2022-08-03T00:39:47.287Z,101045.16
2022-08-03T00:42:16.058Z,101048.59
2022-08-03T00:44:44.749Z,101042.00
2022-08-03T00:47:13.240Z,101049.41
2022-08-03T00:49:41.939Z,101039.50
2022-08-03T00:52:10.696Z,101037.78
2022-08-03T00:54:38.654Z,101041.91
2022-08-03T00:57:07.570Z,101038.63
2022-08-03T00:59:35.269Z,101037.78
2022-08-03T01:02:03.369Z,101035.97
2022-08-03T01:04:31.562Z,101037.59
2022-08-03T01:07:10.799Z,101041.88
2022-08-03T01:10:00.521Z,101040.66
2022-08-03T01:12:58.215Z,101030.81
2022-08-03T01:15:36.263Z,101028.53
2022-08-03T01:18:15.232Z,101035.53
2022-08-03T01:20:47.803Z,101032.38
2022-08-03T01:24:03.331Z,101033.72
2022-08-03T01:26:43.526Z,101026.75
2022-08-03T01:29:30.283Z,101033.59
2022-08-03T01:32:53.365Z,101032.53
2022-08-03T01:35:01.676Z,101030.53
2022-08-03T01:37:38.652Z,101025.69
2022-08-03T01:40:09.741Z,101025.53
2022-08-03T01:42:39.052Z,101030.53
2022-08-03T01:45:11.015Z,101024.91
2022-08-03T01:47:40.862Z,101022.09
2022-08-03T01:50:10.864Z,101015.13
2022-08-03T01:52:42.451Z,101013.97
2022-08-03T01:55:13.563Z,101022.50
2022-08-03T01:58:05.247Z,101021.34
2022-08-03T02:00:33.428Z,101013.69
2022-08-03T02:03:04.516Z,101024.72
2022-08-03T02:05:33.263Z,101023.53
2022-08-03T02:08:03.599Z,101012.47
2022-08-03T02:10:34.535Z,101013.16
2022-08-03T02:13:08.514Z,101022.16
2022-08-03T02:15:38.883Z,101018.94
2022-08-03T02:18:10.761Z,101015.22
2022-08-03T02:20:40.601Z,101027.94
2022-08-03T02:23:09.047Z,101017.75
2022-08-03T02:25:44.469Z,101016.44
2022-08-03T02:28:17.602Z,101004.63
2022-08-03T02:30:53.875Z,101001.75
2022-08-03T02:33:32.177Z,101002.66
2022-08-03T02:36:01.302Z,101006.97
2022-08-03T02:38:36.619Z,101000.16
2022-08-03T02:41:09.148Z,100999.00
2022-08-03T02:44:05.690Z,100997.47
2022-08-03T02:46:44.717Z,100996.47
2022-08-03T02:49:40.790Z,100994.59
2022-08-03T02:52:05.613Z,100994.16
2022-08-03T02:54:41.491Z,100999.38
2022-08-03T02:57:11.383Z,100994.66
2022-08-03T02:59:40.467Z,100995.91
2022-08-03T03:02:09.396Z,101003.31
2022-08-03T03:04:37.615Z,100999.28
2022-08-03T03:07:16.600Z,101003.03
2022-08-03T03:09:44.879Z,101003.22
2022-08-03T03:12:13.847Z,100999.25
2022-08-03T03:14:42.073Z,101001.09
2022-08-03T03:17:11.805Z,101005.63
2022-08-03T03:19:40.906Z,101000.53
2022-08-03T03:22:10.626Z,101003.59
2022-08-03T03:24:41.125Z,101005.69
2022-08-03T03:27:09.240Z,101005.09
2022-08-03T03:29:39.369Z,101003.03
2022-08-03T03:32:09.168Z,101004.09
2022-08-03T03:34:37.735Z,101011.06
2022-08-03T03:37:06.185Z,101007.34
2022-08-03T03:39:33.869Z,101007.28
2022-08-03T03:42:02.217Z,101008.28
2022-08-03T03:44:30.320Z,101004.56
2022-08-03T03:46:58.477Z,101005.00
2022-08-03T03:49:26.986Z,101009.34
2022-08-03T03:51:56.142Z,101008.56
2022-08-03T03:54:25.610Z,101010.22
2022-08-03T03:56:57.968Z,101009.22
2022-08-03T03:59:25.544Z,101009.94
2022-08-03T04:01:58.769Z,101005.94
2022-08-03T04:04:45.832Z,101011.06
2022-08-03T04:07:31.941Z,101008.09
2022-08-03T04:10:19.302Z,101017.88
2022-08-03T04:12:49.999Z,101018.63
2022-08-03T04:15:23.299Z,101015.13
2022-08-03T04:17:54.129Z,101016.44
2022-08-03T04:20:24.353Z,101016.19
2022-08-03T04:22:54.990Z,101019.66
2022-08-03T04:25:26.455Z,101019.47
2022-08-03T04:28:08.142Z,101017.94
2022-08-03T04:30:50.768Z,101021.97
2022-08-03T04:33:20.326Z,101032.16
2022-08-03T04:36:02.048Z,101032.88
2022-08-03T04:38:40.702Z,101018.88
2022-08-03T04:41:09.398Z,101022.97
2022-08-03T04:43:43.343Z,101027.28
2022-08-03T04:46:12.645Z,101026.47
2022-08-03T04:48:44.344Z,101032.28
2022-08-03T04:51:13.502Z,101035.75
2022-08-03T04:53:44.010Z,101043.41
2022-08-03T04:56:11.775Z,101043.50
2022-08-03T04:58:39.499Z,101044.44
2022-08-03T05:01:07.619Z,101051.28
2022-08-03T05:03:35.307Z,101046.97
2022-08-03T05:06:11.288Z,101049.91
2022-08-03T05:08:45.996Z,101040.16
2022-08-03T05:11:16.079Z,101041.63
2022-08-03T05:13:45.696Z,101037.97
2022-08-03T05:16:14.506Z,101045.34
2022-08-03T05:18:43.151Z,101047.31
2022-08-03T05:21:12.484Z,101051.16
2022-08-03T05:23:40.490Z,101052.34
2022-08-03T05:26:08.096Z,101051.81
2022-08-03T05:28:35.773Z,101050.72
2022-08-03T05:31:03.463Z,101052.78
2022-08-03T05:33:31.758Z,101045.50
2022-08-03T05:36:03.309Z,101048.94
2022-08-03T05:38:34.569Z,101048.94
2022-08-03T05:41:22.230Z,101044.84
2022-08-03T05:43:53.972Z,101053.28
2022-08-03T05:46:23.012Z,101048.13
2022-08-03T05:48:51.568Z,101053.75
2022-08-03T05:51:19.540Z,101045.94
2022-08-03T05:53:47.071Z,101048.66
2022-08-03T05:56:16.553Z,101038.50
2022-08-03T05:58:46.461Z,101043.47
2022-08-03T06:01:15.479Z,101056.97
2022-08-03T06:03:43.791Z,101054.06
2022-08-03T06:06:12.150Z,101046.03
2022-08-03T06:08:43.355Z,101054.09
2022-08-03T06:11:11.728Z,101050.78
2022-08-03T06:13:39.914Z,101054.69
2022-08-03T06:16:07.905Z,101059.84
2022-08-03T06:18:36.044Z,101073.94
2022-08-03T06:21:14.352Z,101069.75
2022-08-03T06:23:53.128Z,101079.72
2022-08-03T06:26:25.021Z,101068.88
2022-08-03T06:28:54.163Z,101080.03
2022-08-03T06:31:26.001Z,101089.81
2022-08-03T06:34:33.153Z,101084.59
2022-08-03T06:36:57.430Z,101091.69
2022-08-03T06:39:29.428Z,101094.88
2022-08-03T06:41:57.092Z,101094.59
2022-08-03T06:44:24.916Z,101092.69
2022-08-03T06:46:53.026Z,101092.44
2022-08-03T06:49:21.299Z,101095.50
2022-08-03T06:52:04.356Z,101099.66
2022-08-03T06:54:34.121Z,101100.59
2022-08-03T06:57:01.999Z,101098.59
2022-08-03T07:00:11.052Z,101104.88
2022-08-03T07:02:21.007Z,101106.53
2022-08-03T07:04:50.092Z,101104.22
2022-08-03T07:07:19.315Z,101099.81
2022-08-03T07:09:57.388Z,101105.63
2022-08-03T07:12:28.057Z,101110.59
2022-08-03T07:15:00.711Z,101105.16
2022-08-03T07:17:32.683Z,101107.13
2022-08-03T07:20:01.940Z,101102.75
2022-08-03T07:22:30.406Z,101110.06
2022-08-03T07:24:59.097Z,101109.47
2022-08-03T07:27:28.660Z,101101.19
2022-08-03T07:29:58.102Z,101107.81
2022-08-03T07:32:26.448Z,101108.25
2022-08-03T07:34:59.972Z,101104.72
2022-08-03T07:37:29.487Z,101101.75
2022-08-03T07:39:58.589Z,101108.38
2022-08-03T07:42:27.751Z,101104.06
2022-08-03T07:44:55.495Z,101107.44
2022-08-03T07:47:25.691Z,101113.47
2022-08-03T07:50:05.151Z,101104.53
2022-08-03T07:52:52.897Z,101110.25
2022-08-03T07:55:23.243Z,101109.78
2022-08-03T07:58:01.517Z,101106.88
2022-08-03T08:00:30.219Z,101111.81
2022-08-03T08:02:58.277Z,101104.75
2022-08-03T08:05:27.034Z,101115.69
2022-08-03T08:07:55.076Z,101102.94
2022-08-03T08:10:22.842Z,101109.13
2022-08-03T08:12:51.028Z,101108.53
2022-08-03T08:15:18.676Z,101112.69
2022-08-03T08:17:49.513Z,101113.75
2022-08-03T08:20:31.342Z,101114.28
2022-08-03T08:23:02.917Z,101115.63
2022-08-03T08:25:32.384Z,101113.03
2022-08-03T08:28:29.830Z,101111.69
2022-08-03T08:30:52.277Z,101105.31
2022-08-03T08:33:23.131Z,101102.94
2022-08-03T08:35:53.778Z,101118.13
2022-08-03T08:38:22.233Z,101107.22
2022-08-03T08:40:50.994Z,101103.66
2022-08-03T08:43:18.765Z,101112.91
2022-08-03T08:45:49.644Z,101101.84
2022-08-03T08:48:23.557Z,101101.69
2022-08-03T08:50:57.308Z,101106.75
2022-08-03T08:53:30.486Z,101108.03
2022-08-03T08:56:01.204Z,101108.56
2022-08-03T08:58:35.323Z,101101.22
2022-08-03T09:01:04.762Z,101101.56
2022-08-03T09:03:34.753Z,101101.56
2022-08-03T09:06:03.846Z,101099.03
2022-08-03T09:08:33.192Z,101101.13
2022-08-03T09:11:01.240Z,101102.03
2022-08-03T09:13:30.561Z,101102.97
2022-08-03T09:16:24.610Z,101103.09
2022-08-03T09:18:54.423Z,101099.56
2022-08-03T09:21:32.201Z,101106.66
2022-08-03T09:24:04.308Z,101097.75
2022-08-03T09:26:38.230Z,101098.28
2022-08-03T09:29:13.853Z,101097.66
2022-08-03T09:31:45.487Z,101099.19
2022-08-03T09:34:16.198Z,101094.94
2022-08-03T09:36:45.006Z,101096.75
2022-08-03T09:39:18.264Z,101104.09
2022-08-03T09:41:48.775Z,101090.84
2022-08-03T09:44:25.860Z,101092.94
2022-08-03T09:46:58.310Z,101088.44
2022-08-03T09:49:26.082Z,101085.31
2022-08-03T09:52:38.429Z,101089.91
2022-08-03T09:54:43.163Z,101087.84
2022-08-03T09:57:26.345Z,101082.25
2022-08-03T10:00:03.011Z,101079.44
2022-08-03T10:02:44.629Z,101080.00
2022-08-03T10:05:19.786Z,101078.50
2022-08-03T10:07:50.025Z,101073.50
2022-08-03T10:10:29.117Z,101069.34
2022-08-03T10:13:00.486Z,101070.19
2022-08-03T10:16:22.023Z,101063.06
2022-08-03T10:18:17.293Z,101060.13
2022-08-03T10:20:52.239Z,101060.72
2022-08-03T10:23:22.866Z,101057.31
2022-08-03T10:25:58.268Z,101051.09
2022-08-03T10:28:29.306Z,101056.72
2022-08-03T10:30:57.338Z,101058.09
2022-08-03T10:33:51.568Z,101051.72
2022-08-03T10:36:17.799Z,101046.38
2022-08-03T10:38:55.292Z,101036.94
2022-08-03T10:41:31.050Z,101041.53
2022-08-03T10:44:15.773Z,101045.25
2022-08-03T10:46:45.406Z,101040.06
2022-08-03T10:49:16.697Z,101040.34
2022-08-03T10:52:00.368Z,101022.69
2022-08-03T10:54:37.134Z,101034.41
2022-08-03T10:57:23.719Z,101025.59
2022-08-03T10:59:55.914Z,101013.53
2022-08-03T11:02:23.435Z,101030.28
2022-08-03T11:05:29.846Z,101029.19
2022-08-03T11:08:23.197Z,101020.59
2022-08-03T11:10:54.642Z,101022.03
2022-08-03T11:13:25.329Z,101018.44
2022-08-03T11:16:01.678Z,101030.16
2022-08-03T11:18:32.017Z,101022.72
2022-08-03T11:21:01.628Z,101012.88
2022-08-03T11:24:03.994Z,101012.91
2022-08-03T11:26:34.334Z,101014.13
2022-08-03T11:29:28.332Z,101010.72
2022-08-03T11:31:57.017Z,101012.34
2022-08-03T11:34:26.223Z,101015.19
2022-08-03T11:37:23.017Z,101021.94
2022-08-03T11:39:53.353Z,101004.13
2022-08-03T11:42:24.122Z,101009.81
2022-08-03T11:45:00.961Z,101010.84
2022-08-03T11:47:30.536Z,101007.81
2022-08-03T11:50:02.234Z,101014.31
2022-08-03T11:52:38.880Z,101005.13
2022-08-03T11:55:11.943Z,100993.00
2022-08-03T11:59:19.543Z,100997.41
2022-08-03T12:00:32.605Z,100988.53
2022-08-03T12:03:07.110Z,100987.19
2022-08-03T12:05:35.875Z,100983.03
2022-08-03T12:08:06.908Z,100984.72
2022-08-03T12:10:35.829Z,100976.91
2022-08-03T12:14:27.419Z,100969.22
2022-08-03T12:15:59.250Z,100977.78
2022-08-03T12:18:27.997Z,100981.03
2022-08-03T12:21:11.195Z,100967.34
2022-08-03T12:23:39.916Z,100973.25
2022-08-03T12:26:10.086Z,100972.50
2022-08-03T12:28:38.535Z,100968.41
2022-08-03T12:31:09.623Z,100972.88
2022-08-03T12:34:05.179Z,100967.16
2022-08-03T12:36:36.419Z,100964.22
2022-08-03T12:39:12.144Z,100967.34
2022-08-03T12:41:41.061Z,100970.13
2022-08-03T12:44:10.484Z,100973.41
2022-08-03T12:46:45.381Z,100962.97
2022-08-03T12:49:20.046Z,100963.09
2022-08-03T12:51:48.022Z,100961.28
2022-08-03T12:54:24.934Z,100974.47
2022-08-03T12:57:16.275Z,100970.84
2022-08-03T12:59:53.573Z,100967.50
2022-08-03T13:02:27.327Z,100963.78
2022-08-03T13:04:56.142Z,100957.72
2022-08-03T13:07:23.728Z,100955.25
2022-08-03T13:09:57.505Z,100955.59
2022-08-03T13:12:27.522Z,100959.94
2022-08-03T13:14:57.506Z,100952.91
2022-08-03T13:17:26.027Z,100946.41
2022-08-03T13:19:53.861Z,100948.38
2022-08-03T13:22:23.997Z,100948.50
2022-08-03T13:24:53.612Z,100946.41
2022-08-03T13:28:02.086Z,100948.09
2022-08-03T13:30:10.447Z,100942.72
2022-08-03T13:32:38.485Z,100936.25
2022-08-03T13:35:07.677Z,100940.66
2022-08-03T13:37:35.470Z,100936.28
2022-08-03T13:40:05.725Z,100933.47
2022-08-03T13:42:35.561Z,100927.59
2022-08-03T13:45:04.188Z,100931.94
2022-08-03T13:47:32.351Z,100929.00
2022-08-03T13:50:02.717Z,100918.03
2022-08-03T13:52:33.860Z,100916.72
2022-08-03T13:55:04.556Z,100914.03
2022-08-03T13:58:06.215Z,100919.25
2022-08-03T14:00:27.855Z,100909.81
2022-08-03T14:03:09.072Z,100902.81
2022-08-03T14:05:41.792Z,100905.41
2022-08-03T14:08:10.234Z,100904.66
2022-08-03T14:10:40.261Z,100900.41
2022-08-03T14:13:09.013Z,100894.00
2022-08-03T14:15:38.478Z,100893.25
2022-08-03T14:18:13.011Z,100896.34
2022-08-03T14:20:47.777Z,100892.91
2022-08-03T14:23:18.097Z,100889.69
2022-08-03T14:25:51.799Z,100885.69
2022-08-03T14:28:24.540Z,100874.63
2022-08-03T14:30:52.876Z,100876.81
2022-08-03T14:33:20.943Z,100878.41
2022-08-03T14:35:49.436Z,100880.22
2022-08-03T14:38:18.699Z,100875.63
2022-08-03T14:40:47.207Z,100869.22
2022-08-03T14:43:18.192Z,100873.63
2022-08-03T14:45:46.392Z,100864.19
2022-08-03T14:50:26.547Z,100869.97
2022-08-03T14:51:02.842Z,100866.84
2022-08-03T14:53:30.685Z,100859.38
2022-08-03T14:55:58.697Z,100850.06
2022-08-03T14:58:26.882Z,100850.19
2022-08-03T15:00:56.138Z,100850.97
2022-08-03T15:03:25.483Z,100843.72
2022-08-03T15:05:55.391Z,100850.78
2022-08-03T15:08:25.739Z,100844.94
2022-08-03T15:10:54.852Z,100844.94
2022-08-03T15:13:22.838Z,100828.50
2022-08-03T15:15:51.839Z,100838.81
2022-08-03T15:18:20.493Z,100832.72
2022-08-03T15:20:50.559Z,100836.22
2022-08-03T15:23:19.534Z,100838.44
2022-08-03T15:26:03.974Z,100831.44
2022-08-03T15:28:37.522Z,100829.25
2022-08-03T15:31:06.872Z,100825.00
2022-08-03T15:33:35.451Z,100820.22
2022-08-03T15:36:04.524Z,100815.06
2022-08-03T15:38:32.104Z,100820.06
2022-08-03T15:41:00.524Z,100814.41
2022-08-03T15:43:28.556Z,100810.75
2022-08-03T15:46:27.809Z,100808.34
2022-08-03T15:48:43.848Z,100804.03
2022-08-03T15:51:12.458Z,100799.88
2022-08-03T15:53:40.252Z,100796.78
2022-08-03T15:56:13.268Z,100801.22
2022-08-03T15:59:04.665Z,100793.50
2022-08-03T16:01:33.088Z,100790.00
2022-08-03T16:04:01.119Z,100793.63
2022-08-03T16:06:35.522Z,100786.53
2022-08-03T16:09:22.894Z,100781.53
2022-08-03T16:11:55.644Z,100790.88
2022-08-03T16:14:32.008Z,100782.66
2022-08-03T16:17:04.417Z,100773.09
2022-08-03T16:19:32.580Z,100776.53
2022-08-03T16:22:02.019Z,100777.72
2022-08-03T16:24:31.910Z,100781.97
2022-08-03T16:27:00.472Z,100777.63
2022-08-03T16:29:28.768Z,100787.13
2022-08-03T16:31:56.944Z,100782.00
2022-08-03T16:34:24.810Z,100771.44
2022-08-03T16:36:53.000Z,100772.84
2022-08-03T16:39:20.996Z,100767.72
2022-08-03T16:41:54.525Z,100776.66
2022-08-03T16:44:31.291Z,100769.47
2022-08-03T16:46:59.587Z,100771.66
2022-08-03T16:49:53.692Z,100768.03
2022-08-03T16:52:16.611Z,100763.34
2022-08-03T16:54:50.633Z,100778.50
2022-08-03T16:57:55.937Z,100773.72
2022-08-03T17:00:12.377Z,100768.34
2022-08-03T17:03:04.462Z,100767.53
2022-08-03T17:05:47.184Z,100771.06
2022-08-03T17:08:16.625Z,100762.97
2022-08-03T17:10:55.144Z,100770.94
2022-08-03T17:13:27.729Z,100756.97
2022-08-03T17:16:12.138Z,100766.91
2022-08-03T17:18:56.212Z,100770.47
2022-08-03T17:21:30.886Z,100760.59
2022-08-03T17:24:12.395Z,100764.28
2022-08-03T17:26:49.854Z,100769.84
2022-08-03T17:29:19.484Z,100766.03
2022-08-03T17:31:52.357Z,100775.63
2022-08-03T17:34:26.294Z,100778.59
2022-08-03T17:37:04.549Z,100786.19
2022-08-03T17:42:30.241Z,100792.19
2022-08-03T17:45:02.539Z,100787.00
2022-08-03T17:47:42.774Z,100788.66
2022-08-03T17:50:24.518Z,100789.53
2022-08-03T17:53:07.020Z,100792.78
2022-08-03T17:55:58.553Z,100797.84
2022-08-03T17:58:55.679Z,100802.16
2022-08-03T18:02:00.275Z,100801.63
2022-08-03T18:04:40.527Z,100803.91
2022-08-03T18:07:12.673Z,100814.94
2022-08-03T18:10:05.755Z,100799.13
2022-08-03T18:12:51.810Z,100803.97
2022-08-03T18:15:32.640Z,100800.09
2022-08-03T18:18:10.707Z,100806.63
2022-08-03T18:20:41.724Z,100793.16
2022-08-03T18:23:25.139Z,100799.59
2022-08-03T18:26:04.873Z,100802.78
2022-08-03T18:28:34.604Z,100808.06
2022-08-03T18:31:04.502Z,100817.66
2022-08-03T18:34:17.447Z,100807.28
2022-08-03T18:36:30.036Z,100812.81
2022-08-03T18:39:03.217Z,100805.28
2022-08-03T18:41:35.115Z,100804.19
2022-08-03T18:44:08.844Z,100803.03
2022-08-03T18:46:47.479Z,100806.81
2022-08-03T18:49:22.053Z,100807.19
2022-08-03T18:51:58.553Z,100804.75
2022-08-03T18:55:02.790Z,100808.00
2022-08-03T18:57:50.959Z,100812.19
2022-08-03T19:00:24.417Z,100819.16
2022-08-03T19:03:10.195Z,100818.56
2022-08-03T19:06:05.884Z,100812.66
2022-08-03T19:08:56.177Z,100823.88
2022-08-03T19:12:13.874Z,100821.06
2022-08-03T19:14:35.355Z,100824.75
2022-08-03T19:17:13.258Z,100832.56
2022-08-03T19:19:48.175Z,100827.69
2022-08-03T19:22:22.407Z,100830.19
2022-08-03T19:24:53.484Z,100834.06
2022-08-03T19:27:26.780Z,100834.63
2022-08-03T19:29:58.962Z,100841.22
2022-08-03T19:32:30.311Z,100847.09
2022-08-03T19:35:00.363Z,100843.56
2022-08-03T19:37:38.731Z,100845.50
2022-08-03T19:40:10.776Z,100840.06
2022-08-03T19:42:45.348Z,100844.22
2022-08-03T19:45:21.983Z,100848.38
2022-08-03T19:48:12.985Z,100854.75
2022-08-03T19:50:44.588Z,100853.75
2022-08-03T19:53:13.679Z,100854.56
2022-08-03T19:55:48.801Z,100850.31
2022-08-03T19:58:28.456Z,100853.97
2022-08-03T20:00:56.680Z,100865.25
2022-08-03T20:03:43.053Z,100871.47
2022-08-03T20:06:12.770Z,100865.78
2022-08-03T20:08:48.238Z,100870.84
2022-08-03T20:11:20.423Z,100871.13
2022-08-03T20:13:57.715Z,100874.41
2022-08-03T20:16:26.410Z,100883.00
2022-08-03T20:18:53.935Z,100878.78
2022-08-03T20:21:31.166Z,100876.03
2022-08-03T20:26:54.586Z,100880.09
2022-08-03T20:30:06.985Z,100884.56
2022-08-03T20:32:25.186Z,100880.38
2022-08-03T20:34:53.451Z,100877.31
2022-08-03T20:37:21.519Z,100878.53
2022-08-03T20:39:49.935Z,100880.44
2022-08-03T20:45:14.060Z,100875.44
2022-08-03T20:47:55.356Z,100882.19
2022-08-03T20:50:23.439Z,100886.84
2022-08-03T20:52:53.874Z,100882.59
2022-08-03T20:55:47.865Z,100888.03
2022-08-03T20:58:11.285Z,100882.72
2022-08-03T21:00:43.656Z,100883.69
2022-08-03T21:03:11.860Z,100890.44
2022-08-03T21:05:48.242Z,100884.75
2022-08-03T21:08:22.583Z,100890.00
2022-08-03T21:10:52.545Z,100892.31
2022-08-03T21:13:07.251Z,100886.25
2022-08-03T21:13:13.297Z,100883.94
2022-08-03T21:13:24.945Z,100899.53
2022-08-03T21:16:12.309Z,100896.53
2022-08-03T21:18:48.700Z,100894.34
2022-08-03T21:21:20.057Z,100901.06
2022-08-03T21:23:53.593Z,100905.81
2022-08-03T21:26:24.268Z,100902.94
2022-08-03T21:28:56.558Z,100905.19
2022-08-03T21:31:26.759Z,100898.28
2022-08-03T21:34:00.617Z,100903.59
2022-08-03T21:36:31.083Z,100911.22
2022-08-03T21:39:00.389Z,100912.69
2022-08-03T21:41:31.345Z,100912.47
2022-08-03T21:44:01.211Z,100914.28
2022-08-03T21:46:35.256Z,100916.25
2022-08-03T21:50:05.554Z,100921.94
2022-08-03T21:51:58.619Z,100924.38
2022-08-03T21:54:35.582Z,100924.69
2022-08-03T21:57:08.965Z,100926.16
2022-08-03T21:59:40.384Z,100931.28
2022-08-03T22:02:11.455Z,100935.06
2022-08-03T22:04:57.204Z,100926.34
2022-08-03T22:07:27.452Z,100934.03
2022-08-03T22:09:56.601Z,100928.78
2022-08-03T22:12:26.869Z,100934.13
2022-08-03T22:15:00.573Z,100936.22
2022-08-03T22:17:55.837Z,100939.16
2022-08-03T22:20:25.686Z,100945.38
2022-08-03T22:22:57.069Z,100950.63
2022-08-03T22:25:32.552Z,100942.47
2022-08-03T22:28:07.434Z,100949.81
2022-08-03T22:30:35.643Z,100948.59
2022-08-03T22:33:11.678Z,100959.09
2022-08-03T22:35:47.885Z,100957.13
2022-08-03T22:38:18.477Z,100960.31
2022-08-03T22:40:52.753Z,100958.03
2022-08-03T22:43:27.756Z,100956.72
2022-08-03T22:46:08.836Z,100948.78
2022-08-03T22:48:40.926Z,100956.66
2022-08-03T22:51:10.344Z,100964.66
2022-08-03T22:53:39.543Z,100967.19
2022-08-03T22:56:09.047Z,100971.28
2022-08-03T22:58:37.334Z,100966.69
2022-08-03T23:01:08.421Z,100971.09
2022-08-03T23:04:00.228Z,100966.31
2022-08-03T23:06:40.578Z,100971.78
2022-08-03T23:09:11.771Z,100977.00
2022-08-03T23:11:45.922Z,100971.97
2022-08-03T23:14:16.908Z,100972.81
2022-08-03T23:16:47.048Z,100978.63
2022-08-03T23:19:17.311Z,100977.16
2022-08-03T23:22:02.456Z,100980.97
2022-08-03T23:24:36.430Z,100978.72
2022-08-03T23:27:05.815Z,100981.44
2022-08-03T23:29:38.504Z,100970.56
2022-08-03T23:32:07.402Z,100967.88
2022-08-03T23:34:57.029Z,100979.94
2022-08-03T23:37:25.317Z,100972.47
2022-08-03T23:39:55.437Z,100978.31
2022-08-03T23:42:23.510Z,100972.72
2022-08-03T23:44:55.290Z,100973.56
2022-08-03T23:47:23.619Z,100975.84
2022-08-03T23:49:51.426Z,100973.56
2022-08-03T23:52:29.695Z,100972.97
2022-08-03T23:55:23.209Z,100969.88
2022-08-03T23:58:18.065Z,100971.31
